createdAt,value
2023-05-24T00:01:09.653Z,4.57
2023-05-24T00:04:12.410Z,4.75
2023-05-24T00:07:16.630Z,4.50
2023-05-24T00:10:19.022Z,4.80
2023-05-24T00:13:21.304Z,4.72
2023-05-24T00:16:23.604Z,4.75
2023-05-24T00:19:25.916Z,4.68
2023-05-24T00:22:28.266Z,4.50
2023-05-24T00:25:30.532Z,4.60
2023-05-24T00:28:32.774Z,5.07
2023-05-24T00:31:35.345Z,4.78
2023-05-24T00:34:37.720Z,5.55
2023-05-24T00:37:41.986Z,5.37
2023-05-24T00:40:44.407Z,4.38
2023-05-24T00:43:46.807Z,5.57
2023-05-24T00:46:49.678Z,4.97
2023-05-24T00:49:51.993Z,4.93
2023-05-24T00:52:54.302Z,5.20
2023-05-24T00:55:56.793Z,5.32
2023-05-24T00:58:59.129Z,4.57
2023-05-24T01:02:01.441Z,5.38
2023-05-24T01:05:05.910Z,4.70
2023-05-24T01:08:20.549Z,5.80
2023-05-24T01:11:53.754Z,5.05
2023-05-24T01:15:10.655Z,4.30
2023-05-24T01:18:19.053Z,4.53
2023-05-24T01:21:27.335Z,5.28
2023-05-24T01:24:59.217Z,4.57
2023-05-24T01:28:04.308Z,5.20
2023-05-24T01:31:07.456Z,4.35
2023-05-24T01:34:09.771Z,5.03
2023-05-24T01:37:12.079Z,5.15
2023-05-24T01:40:15.592Z,4.80
2023-05-24T01:43:39.831Z,4.57
2023-05-24T01:46:42.202Z,5.25
2023-05-24T01:49:50.593Z,4.50
2023-05-24T01:52:54.734Z,4.18
2023-05-24T01:55:58.968Z,5.00
2023-05-24T01:59:03.407Z,5.43
2023-05-24T02:02:06.011Z,4.60
2023-05-24T02:05:09.741Z,4.75
2023-05-24T02:08:12.955Z,5.75
2023-05-24T02:11:15.257Z,4.47
2023-05-24T02:14:20.010Z,5.07
2023-05-24T02:17:23.148Z,5.60
2023-05-24T02:20:28.780Z,4.68
2023-05-24T02:23:31.705Z,5.53
2023-05-24T02:26:35.914Z,5.37
2023-05-24T02:29:38.249Z,4.72
2023-05-24T02:32:41.019Z,4.72
2023-05-24T02:35:43.373Z,5.18
2023-05-24T02:38:45.657Z,5.07
2023-05-24T02:41:47.970Z,4.57
2023-05-24T02:44:52.593Z,5.45
2023-05-24T02:47:55.014Z,4.63
2023-05-24T02:50:57.396Z,4.00
2023-05-24T02:53:59.743Z,5.22
2023-05-24T02:57:03.761Z,6.97
2023-05-24T03:00:09.562Z,6.93
2023-05-24T03:03:11.984Z,5.32
2023-05-24T03:06:15.378Z,5.03
2023-05-24T03:09:19.051Z,5.45
2023-05-24T03:12:21.451Z,4.67
2023-05-24T03:15:23.962Z,3.72
2023-05-24T03:18:27.786Z,5.40
2023-05-24T03:21:30.258Z,4.55
2023-05-24T03:24:33.601Z,4.22
2023-05-24T03:27:36.697Z,7.90
2023-05-24T03:30:39.018Z,5.25
2023-05-24T03:33:41.473Z,5.97
2023-05-24T03:36:43.927Z,4.47
2023-05-24T03:39:46.198Z,4.65
2023-05-24T03:43:05.642Z,4.33
2023-05-24T03:46:21.767Z,4.65
2023-05-24T03:49:24.218Z,6.18
2023-05-24T03:52:26.521Z,4.68
2023-05-24T03:55:28.836Z,5.57
2023-05-24T03:58:31.284Z,4.43
2023-05-24T04:01:34.999Z,5.40
2023-05-24T04:04:37.668Z,4.82
2023-05-24T04:07:40.930Z,5.90
2023-05-24T04:10:43.932Z,4.80
2023-05-24T04:13:47.657Z,4.73
2023-05-24T04:16:49.929Z,5.22
2023-05-24T04:19:54.506Z,5.18
2023-05-24T04:22:56.822Z,5.03
2023-05-24T04:25:59.117Z,5.85
2023-05-24T04:29:01.884Z,4.40
2023-05-24T04:32:06.321Z,5.25
2023-05-24T04:35:09.707Z,4.60
2023-05-24T04:38:12.839Z,6.72
2023-05-24T04:41:15.095Z,5.43
2023-05-24T04:44:17.576Z,5.03
2023-05-24T04:47:19.895Z,4.43
2023-05-24T04:50:22.238Z,4.35
2023-05-24T04:53:25.009Z,4.50
2023-05-24T04:56:27.378Z,5.22
2023-05-24T04:59:29.858Z,7.03
2023-05-24T05:02:33.172Z,5.63
2023-05-24T05:05:35.981Z,6.00
2023-05-24T05:08:38.355Z,6.10
2023-05-24T05:11:41.101Z,6.57
2023-05-24T05:14:43.530Z,5.30
2023-05-24T05:17:45.853Z,4.43
2023-05-24T05:20:48.265Z,6.70
2023-05-24T05:23:50.896Z,6.00
2023-05-24T05:26:53.355Z,5.57
2023-05-24T05:29:55.704Z,6.67
2023-05-24T05:32:58.322Z,6.95
2023-05-24T05:36:00.805Z,7.72
2023-05-24T05:39:03.247Z,5.85
2023-05-24T05:42:06.326Z,7.28
2023-05-24T05:45:09.075Z,7.47
2023-05-24T05:48:11.494Z,7.35
2023-05-24T05:51:14.091Z,6.15
2023-05-24T05:54:18.497Z,8.10
2023-05-24T05:57:24.304Z,7.50
2023-05-24T06:00:26.769Z,7.53
2023-05-24T06:03:29.201Z,8.20
2023-05-24T06:06:31.803Z,6.28
2023-05-24T06:09:34.136Z,7.05
2023-05-24T06:12:38.059Z,6.88
2023-05-24T06:15:40.782Z,6.40
2023-05-24T06:18:50.188Z,6.63
2023-05-24T06:22:00.068Z,6.28
2023-05-24T06:25:03.599Z,7.03
2023-05-24T06:28:09.804Z,6.55
2023-05-24T06:31:12.119Z,6.30
2023-05-24T06:34:19.107Z,6.70
2023-05-24T06:37:25.383Z,6.72
2023-05-24T06:40:27.672Z,5.90
2023-05-24T06:43:30.791Z,6.47
2023-05-24T06:46:33.196Z,6.43
2023-05-24T06:49:35.605Z,7.65
2023-05-24T06:52:37.976Z,8.00
2023-05-24T06:55:40.376Z,7.25
2023-05-24T06:58:42.861Z,7.40
2023-05-24T07:01:45.230Z,7.60
2023-05-24T07:04:47.685Z,6.25
2023-05-24T07:07:50.027Z,6.68
2023-05-24T07:10:54.025Z,6.65
2023-05-24T07:13:57.375Z,6.07
2023-05-24T07:17:00.073Z,7.53
2023-05-24T07:20:02.745Z,7.10
2023-05-24T07:23:09.720Z,8.13
2023-05-24T07:26:12.784Z,8.60
2023-05-24T07:29:15.115Z,7.22
2023-05-24T07:32:17.935Z,7.63
2023-05-24T07:35:21.301Z,5.57
2023-05-24T07:38:23.642Z,8.13
2023-05-24T07:41:27.661Z,6.43
2023-05-24T07:44:30.061Z,7.95
2023-05-24T07:47:32.475Z,7.53
2023-05-24T07:50:34.820Z,7.53
2023-05-24T07:53:37.884Z,7.00
2023-05-24T07:56:42.117Z,6.03
2023-05-24T07:59:44.563Z,6.97
2023-05-24T08:02:47.034Z,5.90
2023-05-24T08:05:49.428Z,5.88
2023-05-24T08:08:51.753Z,7.70
2023-05-24T08:11:54.062Z,6.60
2023-05-24T08:14:57.036Z,6.90
2023-05-24T08:17:59.761Z,6.67
2023-05-24T08:21:02.599Z,7.80
2023-05-24T08:24:07.488Z,6.65
2023-05-24T08:27:11.952Z,7.70
2023-05-24T08:30:14.562Z,5.93
2023-05-24T08:33:17.503Z,5.90
2023-05-24T08:36:19.971Z,5.75
2023-05-24T08:39:22.395Z,6.63
2023-05-24T08:42:26.210Z,6.85
2023-05-24T08:45:32.863Z,6.50
2023-05-24T08:48:45.438Z,4.80
2023-05-24T08:51:48.305Z,6.10
2023-05-24T08:54:53.249Z,5.57
2023-05-24T08:57:56.516Z,5.68
2023-05-24T09:01:00.584Z,6.03
2023-05-24T09:04:04.804Z,5.50
2023-05-24T09:07:14.025Z,5.38
2023-05-24T09:10:19.497Z,5.88
2023-05-24T09:13:24.894Z,6.82
2023-05-24T09:16:28.085Z,6.65
2023-05-24T09:19:30.534Z,5.53
2023-05-24T09:22:36.821Z,4.72
2023-05-24T09:25:45.178Z,6.60
2023-05-24T09:28:47.985Z,5.60
2023-05-24T09:31:51.652Z,5.07
2023-05-24T09:34:56.117Z,4.80
2023-05-24T09:38:00.164Z,4.72
2023-05-24T09:41:08.535Z,5.00
2023-05-24T09:44:15.280Z,4.50
2023-05-24T09:47:17.689Z,6.10
2023-05-24T09:50:20.111Z,4.03
2023-05-24T09:53:22.550Z,5.07
2023-05-24T09:56:25.531Z,6.45
2023-05-24T09:59:28.264Z,4.35
2023-05-24T10:02:41.285Z,4.65
2023-05-24T10:05:48.494Z,3.93
2023-05-24T10:08:57.551Z,3.90
2023-05-24T10:12:05.006Z,4.88
2023-05-24T10:15:09.874Z,3.90
2023-05-24T10:18:14.593Z,3.40
2023-05-24T10:21:19.859Z,4.23
2023-05-24T10:24:29.602Z,4.25
2023-05-24T10:27:33.306Z,4.20
2023-05-24T10:30:57.088Z,4.18
2023-05-24T10:34:07.599Z,4.00
2023-05-24T10:37:11.144Z,4.10
2023-05-24T10:40:20.416Z,3.60
2023-05-24T10:43:25.552Z,3.78
2023-05-24T10:46:28.405Z,3.97
2023-05-24T10:49:31.394Z,4.32
2023-05-24T10:52:35.697Z,4.20
2023-05-24T10:55:58.204Z,4.07
2023-05-24T10:59:06.186Z,3.90
2023-05-24T11:02:15.222Z,4.35
2023-05-24T11:05:18.411Z,4.00
2023-05-24T11:08:32.099Z,3.97
2023-05-24T11:11:34.537Z,4.18
2023-05-24T11:14:39.798Z,3.90
2023-05-24T11:18:12.361Z,3.67
2023-05-24T11:21:14.808Z,4.55
2023-05-24T11:24:18.856Z,3.80
2023-05-24T11:27:21.791Z,3.90
2023-05-24T11:30:24.727Z,3.70
2023-05-24T11:33:27.834Z,3.90
2023-05-24T11:36:30.575Z,3.28
2023-05-24T11:39:34.472Z,4.43
2023-05-24T11:42:38.380Z,3.97
2023-05-24T11:45:49.646Z,3.92
2023-05-24T11:48:57.525Z,4.00
2023-05-24T11:52:01.007Z,3.40
2023-05-24T11:55:04.749Z,3.53
2023-05-24T11:58:12.635Z,3.70
2023-05-24T12:01:28.277Z,3.45
2023-05-24T12:04:32.337Z,3.30
2023-05-24T12:07:34.790Z,3.80
2023-05-24T12:10:41.986Z,3.47
2023-05-24T12:13:44.724Z,4.63
2023-05-24T12:16:47.536Z,4.53
2023-05-24T12:19:53.606Z,5.20
2023-05-24T12:22:56.349Z,3.55
2023-05-24T12:26:00.122Z,3.73
2023-05-24T12:29:03.366Z,3.42
2023-05-24T12:32:13.909Z,4.75
2023-05-24T12:35:21.163Z,3.35
2023-05-24T12:38:25.785Z,4.18
2023-05-24T12:41:30.885Z,3.97
2023-05-24T12:44:37.486Z,3.13
2023-05-24T12:47:39.927Z,3.15
2023-05-24T12:50:42.548Z,3.15
2023-05-24T12:53:45.192Z,3.97
2023-05-24T12:56:47.652Z,3.50
2023-05-24T12:59:50.299Z,3.28
2023-05-24T13:02:56.142Z,3.38
2023-05-24T13:05:59.996Z,4.15
2023-05-24T13:09:02.579Z,3.40
2023-05-24T13:12:05.984Z,3.73
2023-05-24T13:15:09.053Z,3.20
2023-05-24T13:18:11.534Z,4.55
2023-05-24T13:21:13.953Z,4.30
2023-05-24T13:24:16.752Z,3.40
2023-05-24T13:27:19.152Z,3.30
2023-05-24T13:30:27.655Z,3.15
2023-05-24T13:33:32.955Z,3.67
2023-05-24T13:36:35.286Z,3.58
2023-05-24T13:39:38.503Z,3.85
2023-05-24T13:42:41.095Z,2.83
2023-05-24T13:45:44.615Z,3.70
2023-05-24T13:48:47.410Z,3.47
2023-05-24T13:51:50.586Z,2.92
2023-05-24T13:54:53.403Z,3.35
2023-05-24T13:57:57.346Z,3.30
2023-05-24T14:00:59.614Z,3.35
2023-05-24T14:04:03.845Z,3.83
2023-05-24T14:07:08.533Z,3.70
2023-05-24T14:10:11.852Z,3.47
2023-05-24T14:13:32.177Z,3.67
2023-05-24T14:16:37.098Z,3.65
2023-05-24T14:19:39.644Z,3.65
2023-05-24T14:22:42.144Z,3.92
2023-05-24T14:25:46.938Z,3.75
2023-05-24T14:28:49.503Z,3.30
2023-05-24T14:31:51.830Z,3.47
2023-05-24T14:34:54.875Z,3.70
2023-05-24T14:37:57.280Z,3.70
2023-05-24T14:41:00.625Z,3.90
2023-05-24T14:44:03.698Z,3.53
2023-05-24T14:47:06.304Z,3.85
2023-05-24T14:50:08.894Z,3.30
2023-05-24T14:53:14.124Z,3.17
2023-05-24T14:56:17.014Z,3.80
2023-05-24T14:59:19.272Z,3.80
2023-05-24T15:02:21.882Z,3.42
2023-05-24T15:05:25.578Z,3.97
2023-05-24T15:08:28.959Z,4.90
2023-05-24T15:11:31.362Z,3.92
2023-05-24T15:14:33.624Z,3.90
2023-05-24T15:17:37.027Z,4.40
2023-05-24T15:20:39.419Z,3.53
2023-05-24T15:23:42.218Z,3.50
2023-05-24T15:26:44.567Z,3.60
2023-05-24T15:29:46.891Z,3.80
2023-05-24T15:32:49.156Z,3.83
2023-05-24T15:35:51.438Z,4.30
2023-05-24T15:38:53.734Z,3.50
2023-05-24T15:41:57.086Z,4.53
2023-05-24T15:45:00.378Z,4.00
2023-05-24T15:48:08.363Z,4.10
2023-05-24T15:54:15.989Z,4.38
2023-05-24T15:57:19.497Z,4.00
2023-05-24T16:00:22.031Z,4.00
2023-05-24T16:03:29.751Z,4.55
2023-05-24T16:06:32.444Z,4.15
2023-05-24T16:09:34.733Z,3.35
2023-05-24T16:12:37.027Z,3.85
2023-05-24T16:15:41.795Z,3.07
2023-05-24T16:18:44.097Z,4.13
2023-05-24T16:21:46.639Z,3.42
2023-05-24T16:24:48.935Z,3.60
2023-05-24T16:27:51.549Z,2.95
2023-05-24T16:30:56.438Z,3.33
2023-05-24T16:34:01.614Z,3.45
2023-05-24T16:37:03.892Z,3.20
2023-05-24T16:40:07.429Z,3.35
2023-05-24T16:43:09.726Z,3.53
2023-05-24T16:46:12.197Z,3.80
2023-05-24T16:49:14.534Z,2.70
2023-05-24T16:52:16.838Z,3.50
2023-05-24T16:55:20.858Z,3.80
2023-05-24T16:58:25.101Z,3.17
2023-05-24T17:01:28.658Z,3.40
2023-05-24T17:04:30.916Z,3.72
2023-05-24T17:07:33.260Z,3.53
2023-05-24T17:10:35.740Z,4.72
2023-05-24T17:13:38.056Z,3.15
2023-05-24T17:16:40.453Z,3.40
2023-05-24T17:19:42.860Z,3.05
2023-05-24T17:22:45.132Z,3.08
2023-05-24T17:25:47.429Z,3.10
2023-05-24T17:28:50.725Z,3.15
2023-05-24T17:31:53.063Z,3.50
2023-05-24T17:34:55.330Z,3.78
2023-05-24T17:37:57.694Z,3.83
2023-05-24T17:41:00.036Z,3.20
2023-05-24T17:44:02.334Z,3.15
2023-05-24T17:47:05.012Z,3.30
2023-05-24T17:50:08.935Z,3.08
2023-05-24T17:53:29.880Z,3.95
2023-05-24T17:56:32.844Z,4.18
2023-05-24T17:59:35.133Z,3.13
2023-05-24T18:02:37.453Z,2.97
2023-05-24T18:05:39.767Z,3.35
2023-05-24T18:08:43.429Z,3.92
2023-05-24T18:11:46.638Z,2.38
2023-05-24T18:14:48.923Z,3.00
2023-05-24T18:17:51.513Z,3.10
2023-05-24T18:20:54.887Z,2.90
2023-05-24T18:23:57.220Z,3.78
2023-05-24T18:26:59.762Z,3.10
2023-05-24T18:30:02.281Z,3.25
2023-05-24T18:33:08.120Z,3.40
2023-05-24T18:36:12.758Z,3.42
2023-05-24T18:39:15.273Z,3.10
2023-05-24T18:42:17.797Z,3.38
2023-05-24T18:45:20.930Z,3.15
2023-05-24T18:48:23.262Z,3.17
2023-05-24T18:51:25.832Z,3.08
2023-05-24T18:54:29.604Z,2.70
2023-05-24T18:57:33.115Z,3.22
2023-05-24T19:00:36.385Z,3.97
2023-05-24T19:03:39.275Z,2.80
2023-05-24T19:06:43.530Z,3.35
2023-05-24T19:09:45.824Z,2.72
2023-05-24T19:12:48.137Z,2.70
2023-05-24T19:15:50.509Z,3.10
2023-05-24T19:18:52.812Z,3.33
2023-05-24T19:21:55.511Z,3.50
2023-05-24T19:24:57.906Z,2.97
2023-05-24T19:28:01.175Z,2.90
2023-05-24T19:31:04.567Z,2.53
2023-05-24T19:34:06.843Z,2.50
2023-05-24T19:37:09.533Z,3.15
2023-05-24T19:40:11.972Z,2.53
2023-05-24T19:43:14.217Z,3.35
2023-05-24T19:46:16.578Z,2.35
2023-05-24T19:49:18.949Z,3.47
2023-05-24T19:52:21.716Z,3.13
2023-05-24T19:55:24.015Z,3.50
2023-05-24T19:58:26.397Z,2.72
2023-05-24T20:01:28.704Z,2.92
2023-05-24T20:04:31.513Z,3.43
2023-05-24T20:07:33.895Z,2.60
2023-05-24T20:10:36.501Z,2.83
2023-05-24T20:13:39.193Z,2.75
2023-05-24T20:16:42.068Z,2.35
2023-05-24T20:19:44.361Z,2.90
2023-05-24T20:22:46.721Z,2.72
2023-05-24T20:25:48.962Z,3.22
2023-05-24T20:28:52.113Z,3.10
2023-05-24T20:31:54.489Z,2.97
2023-05-24T20:34:56.814Z,3.57
2023-05-24T20:37:59.049Z,3.00
2023-05-24T20:41:03.629Z,2.67
2023-05-24T20:44:05.914Z,2.53
2023-05-24T20:47:08.248Z,2.55
2023-05-24T20:50:17.148Z,4.00
2023-05-24T20:53:19.408Z,3.22
2023-05-24T20:56:23.172Z,4.20
2023-05-24T20:59:26.034Z,3.35
2023-05-24T21:02:28.672Z,2.50
2023-05-24T21:05:31.436Z,3.10
2023-05-24T21:08:33.709Z,2.50
2023-05-24T21:11:36.186Z,3.08
2023-05-24T21:14:38.473Z,2.83
2023-05-24T21:17:40.843Z,3.00
2023-05-24T21:20:43.989Z,2.93
2023-05-24T21:23:46.473Z,3.20
2023-05-24T21:26:48.799Z,3.03
2023-05-24T21:29:52.121Z,3.08
2023-05-24T21:32:54.412Z,3.05
2023-05-24T21:35:58.465Z,3.33
2023-05-24T21:39:03.929Z,3.00
2023-05-24T21:42:06.813Z,3.83
2023-05-24T21:45:11.298Z,3.53
2023-05-24T21:48:13.599Z,3.53
2023-05-24T21:51:15.873Z,2.63
2023-05-24T21:54:19.934Z,2.97
2023-05-24T21:57:23.008Z,3.28
2023-05-24T22:00:27.205Z,3.00
2023-05-24T22:03:29.889Z,3.33
2023-05-24T22:06:32.582Z,3.57
2023-05-24T22:09:34.946Z,3.80
2023-05-24T22:12:37.295Z,4.88
2023-05-24T22:15:39.566Z,3.67
2023-05-24T22:18:41.867Z,3.55
2023-05-24T22:21:45.946Z,2.87
2023-05-24T22:24:49.633Z,4.03
2023-05-24T22:27:55.749Z,4.05
2023-05-24T22:30:59.093Z,3.97
2023-05-24T22:34:02.486Z,4.25
2023-05-24T22:37:05.024Z,3.90
2023-05-24T22:40:07.916Z,4.15
2023-05-24T22:43:10.224Z,3.63
2023-05-24T22:46:12.596Z,4.30
2023-05-24T22:49:19.739Z,4.13
2023-05-24T22:52:24.585Z,3.20
2023-05-24T22:55:26.874Z,3.53
2023-05-24T22:58:29.182Z,4.65
2023-05-24T23:01:34.719Z,4.13
2023-05-24T23:04:37.944Z,3.03
2023-05-24T23:07:40.322Z,3.67
2023-05-24T23:10:45.691Z,4.40
2023-05-24T23:13:51.130Z,3.85
2023-05-24T23:17:02.829Z,3.63
2023-05-24T23:20:06.075Z,4.93
2023-05-24T23:23:08.707Z,4.20
2023-05-24T23:26:11.006Z,8.00
2023-05-24T23:29:13.423Z,4.43
2023-05-24T23:32:15.936Z,4.47
2023-05-24T23:35:18.179Z,5.18
2023-05-24T23:38:20.420Z,3.47
2023-05-24T23:41:22.679Z,4.57
2023-05-24T23:44:25.941Z,3.83
2023-05-24T23:47:28.387Z,4.18
2023-05-24T23:50:35.059Z,3.95
2023-05-24T23:53:42.573Z,9.37
2023-05-24T23:56:44.930Z,3.60
2023-05-24T23:59:47.197Z,4.03
